Meteo Giornale » Osservazioni meteo Stati Uniti (USA) » Gallup
ore: 07:53 - Osservazioni Meteo Gallup
Lat. 35° 30' N Lon. 108° 47' W Alt. 1973 metri s.l.m.
14 °C
Sereno
Temp. 24 Ore
14 °C
28 °C
Nord-Ovest
14.8 Km/h
Dew point 12 °C
Umidità 87 %
Visibilità 10 Km
Il sole sorge alle ore 06:46
Il sole tramonta alle ore 19:43
| Data e Ora | Cielo e Fenomeni | T °C | DP °C | Um. % | Pres. hPa | Vis. km | Vento km/h | |
|---|---|---|---|---|---|---|---|---|
| Oggi h: 07:53 | Sereno | 14 | 12 | 87 | 1026 | 10 | NO 14.8 | |
| Oggi h: 06:53 | Coperto | 16 | 11 | 72 | 1026 | 10 | NO 20.3 | |
| Oggi h: 06:40 | Coperto | 16 | 11 | 72 | 1025 | 10 | NO 25.9 | |
| Oggi h: 06:14 | Temporale nelle vicinanze Pioggia | 16 | 11 | 72 | 1024 | 10 | NE 16.7 | |
| Oggi h: 05:53 | Coperto | 16 | 11 | 72 | 1024 | 10 | N 0 | |
| Oggi h: 04:53 | Poco Nuvoloso | 16 | 11 | 72 | 1024 | 10 | N/NE 13 | |
| Oggi h: 03:53 | Sereno | 16 | 11 | 72 | 1024 | 10 | N 5.5 | |
| Oggi h: 02:53 | Molto Nuvoloso | 16 | 11 | 72 | 1025 | 10 | E 11.1 | |
| Oggi h: 01:53 | Coperto | 16 | 12 | 77 | 1025 | 10 | N 9.3 | |
| Oggi h: 00:53 | Pioggia | 16 | 12 | 77 | 1026 | 10 | NO 24 | |
| Oggi h: 00:41 | Pioggia | 17 | 12 | 72 | 1026 | 11 | NO 25.9 | |
| Oggi h: 00:26 | Temporale | 19 | 11 | 59 | 1026 | 10 | NO 27.8 | |
| Oggi h: 00:16 | Molto Nuvoloso | 19 | 9 | 52 | 1026 | 10 | NO 33.3 | |
| Ieri h: 23:53 | Temporale nelle vicinanze | 17 | 10 | 63 | 1025 | 10 | O 16.7 | |
| Ieri h: 22:53 | Molto Nuvoloso | 17 | 11 | 67 | 1025 | 10 | N 0 | |
| Ieri h: 21:53 | Sereno | 18 | 10 | 59 | 1024 | 10 | N 0 | |
| Ieri h: 20:53 | Sereno | 19 | 9 | 52 | 1023 | 10 | N 0 | |
| Ieri h: 19:53 | Poco Nuvoloso | 22 | 9 | 43 | 1023 | 10 | NO 14.8 | |
| Ieri h: 18:53 | Sereno | 26 | 11 | 39 | 1022 | 10 | O 18.5 | |
| Ieri h: 17:53 | Sereno | 27 | 10 | 34 | 1022 | 10 | SO 20.3 | |
| Ieri h: 16:53 | Sereno | 28 | 10 | 32 | 1022 | 10 | S/SO 18.5 | |
| Ieri h: 15:53 | Sereno | 27 | 9 | 32 | 1023 | 10 | S/SO 18.5 | |
| Ieri h: 14:53 | Sereno | 27 | 11 | 36 | 1024 | 10 | SO 16.7 | |
| Ieri h: 13:53 | Sereno | 26 | 12 | 41 | 1025 | 10 | SO 16.7 | |
| Ieri h: 12:53 | Sereno | 24 | 11 | 43 | 1026 | 10 | O/SO 16.7 | |
| Ieri h: 11:53 | Sereno | 23 | 12 | 49 | 1026 | 10 | O/SO 18.5 | |
| Ieri h: 10:53 | Sereno | 22 | 12 | 53 | 1026 | 10 | S/SO 11.1 | |
| Ieri h: 09:53 | Sereno | 19 | 13 | 68 | 1026 | 10 | N 5.5 | |
| Ieri h: 08:53 | Sereno | 18 | 13 | 72 | 1026 | 10 | SO 9.3 | |



